sensor_id;sensor_type;location;lat;lon;timestamp;pressure;altitude;pressure_sealevel;temperature;humidity
35649;BME280;21768;48.562;13.414;2023-05-01T00:00:07;97364.94;;;11.03;58.11
35649;BME280;21768;48.562;13.414;2023-05-01T00:02:34;97363.09;;;11.01;58.10
35649;BME280;21768;48.562;13.414;2023-05-01T00:05:00;97356.88;;;10.96;57.97
35649;BME280;21768;48.562;13.414;2023-05-01T00:07:26;97354.25;;;10.94;57.80
35649;BME280;21768;48.562;13.414;2023-05-01T00:09:55;97353.00;;;11.01;57.75
35649;BME280;21768;48.562;13.414;2023-05-01T00:12:21;97362.22;;;11.00;58.16
35649;BME280;21768;48.562;13.414;2023-05-01T00:14:46;97353.69;;;10.98;58.18
35649;BME280;21768;48.562;13.414;2023-05-01T00:17:11;97350.09;;;10.95;58.12
35649;BME280;21768;48.562;13.414;2023-05-01T00:19:37;97346.31;;;10.88;58.64
35649;BME280;21768;48.562;13.414;2023-05-01T00:22:02;97335.16;;;10.84;58.93
35649;BME280;21768;48.562;13.414;2023-05-01T00:24:27;97333.50;;;10.85;58.99
35649;BME280;21768;48.562;13.414;2023-05-01T00:26:53;97339.88;;;10.93;58.25
35649;BME280;21768;48.562;13.414;2023-05-01T00:29:18;97326.09;;;11.01;58.10
35649;BME280;21768;48.562;13.414;2023-05-01T00:31:43;97332.13;;;11.03;58.00
35649;BME280;21768;48.562;13.414;2023-05-01T00:34:09;97329.50;;;11.02;57.99
35649;BME280;21768;48.562;13.414;2023-05-01T00:36:35;97314.84;;;10.96;57.95
35649;BME280;21768;48.562;13.414;2023-05-01T00:39:01;97323.38;;;10.98;57.39
35649;BME280;21768;48.562;13.414;2023-05-01T00:41:27;97323.38;;;10.98;58.06
35649;BME280;21768;48.562;13.414;2023-05-01T00:43:52;97315.81;;;10.98;57.90
35649;BME280;21768;48.562;13.414;2023-05-01T00:46:18;97318.53;;;11.01;57.90
35649;BME280;21768;48.562;13.414;2023-05-01T00:48:44;97314.66;;;10.93;58.10
35649;BME280;21768;48.562;13.414;2023-05-01T00:51:11;97314.38;;;10.88;58.14
35649;BME280;21768;48.562;13.414;2023-05-01T00:53:39;97312.53;;;10.86;58.44
35649;BME280;21768;48.562;13.414;2023-05-01T00:56:05;97301.47;;;10.84;58.48
35649;BME280;21768;48.562;13.414;2023-05-01T00:58:30;97308.94;;;10.82;58.43
35649;BME280;21768;48.562;13.414;2023-05-01T01:00:56;97306.44;;;10.82;58.30
35649;BME280;21768;48.562;13.414;2023-05-01T01:03:22;97305.75;;;10.85;57.89
35649;BME280;21768;48.562;13.414;2023-05-01T01:05:55;97288.97;;;10.85;57.71
35649;BME280;21768;48.562;13.414;2023-05-01T01:08:28;97295.13;;;10.90;57.90
35649;BME280;21768;48.562;13.414;2023-05-01T01:13:40;97288.03;;;10.98;57.56
35649;BME280;21768;48.562;13.414;2023-05-01T01:19:13;97283.13;;;11.14;56.75
35649;BME280;21768;48.562;13.414;2023-05-01T01:21:45;97278.91;;;11.13;56.44
35649;BME280;21768;48.562;13.414;2023-05-01T01:30:26;97263.91;;;11.16;56.37
35649;BME280;21768;48.562;13.414;2023-05-01T01:35:38;97260.59;;;11.17;56.30
35649;BME280;21768;48.562;13.414;2023-05-01T01:38:13;97265.66;;;11.17;56.52
35649;BME280;21768;48.562;13.414;2023-05-01T01:40:55;97264.00;;;11.18;56.08
35649;BME280;21768;48.562;13.414;2023-05-01T01:43:22;97262.34;;;11.18;56.51
35649;BME280;21768;48.562;13.414;2023-05-01T01:45:55;97256.22;;;11.15;56.83
35649;BME280;21768;48.562;13.414;2023-05-01T01:48:26;97257.81;;;11.13;56.92
35649;BME280;21768;48.562;13.414;2023-05-01T01:50:57;97244.03;;;11.08;56.72
35649;BME280;21768;48.562;13.414;2023-05-01T01:53:25;97257.53;;;11.08;56.79
35649;BME280;21768;48.562;13.414;2023-05-01T01:55:53;97255.78;;;11.07;56.75
35649;BME280;21768;48.562;13.414;2023-05-01T01:58:20;97248.03;;;11.04;56.97
35649;BME280;21768;48.562;13.414;2023-05-01T02:00:50;97256.47;;;11.05;56.69
35649;BME280;21768;48.562;13.414;2023-05-01T02:03:17;97252.69;;;10.98;56.68
35649;BME280;21768;48.562;13.414;2023-05-01T02:05:45;97257.56;;;10.95;56.76
35649;BME280;21768;48.562;13.414;2023-05-01T02:08:12;97247.28;;;10.92;56.88
35649;BME280;21768;48.562;13.414;2023-05-01T02:10:40;97251.19;;;10.87;57.80
35649;BME280;21768;48.562;13.414;2023-05-01T02:13:06;97245.66;;;10.79;57.74
35649;BME280;21768;48.562;13.414;2023-05-01T02:15:33;97249.47;;;10.73;57.94
35649;BME280;21768;48.562;13.414;2023-05-01T02:18:01;97247.16;;;10.63;58.11
35649;BME280;21768;48.562;13.414;2023-05-01T02:20:29;97237.47;;;10.55;58.26
35649;BME280;21768;48.562;13.414;2023-05-01T02:22:55;97246.50;;;10.52;58.62
35649;BME280;21768;48.562;13.414;2023-05-01T02:25:21;97230.00;;;10.44;58.51
35649;BME280;21768;48.562;13.414;2023-05-01T02:27:53;97241.63;;;10.42;58.62
35649;BME280;21768;48.562;13.414;2023-05-01T02:30:19;97233.09;;;10.40;58.65
35649;BME280;21768;48.562;13.414;2023-05-01T02:32:45;97225.75;;;10.30;59.07
35649;BME280;21768;48.562;13.414;2023-05-01T02:35:10;97232.63;;;10.19;58.87
35649;BME280;21768;48.562;13.414;2023-05-01T02:37:36;97229.59;;;10.11;59.61
35649;BME280;21768;48.562;13.414;2023-05-01T02:40:03;97228.75;;;10.11;60.01
35649;BME280;21768;48.562;13.414;2023-05-01T02:42:28;97222.91;;;10.12;59.78
35649;BME280;21768;48.562;13.414;2023-05-01T02:45:01;97216.91;;;10.10;60.02
35649;BME280;21768;48.562;13.414;2023-05-01T02:47:29;97218.25;;;10.05;60.55
35649;BME280;21768;48.562;13.414;2023-05-01T02:49:57;97215.53;;;10.02;60.46
35649;BME280;21768;48.562;13.414;2023-05-01T02:52:23;97208.19;;;10.05;60.38
35649;BME280;21768;48.562;13.414;2023-05-01T02:54:49;97209.25;;;10.08;59.94
35649;BME280;21768;48.562;13.414;2023-05-01T02:57:16;97210.47;;;10.15;60.09
35649;BME280;21768;48.562;13.414;2023-05-01T02:59:42;97206.63;;;10.20;60.10
35649;BME280;21768;48.562;13.414;2023-05-01T03:02:07;97200.94;;;10.22;59.72
35649;BME280;21768;48.562;13.414;2023-05-01T03:04:33;97196.75;;;10.23;59.72
35649;BME280;21768;48.562;13.414;2023-05-01T03:06:58;97204.41;;;10.25;59.75
35649;BME280;21768;48.562;13.414;2023-05-01T03:09:23;97204.31;;;10.23;59.62
35649;BME280;21768;48.562;13.414;2023-05-01T03:11:49;97201.03;;;10.24;60.03
35649;BME280;21768;48.562;13.414;2023-05-01T03:14:15;97195.97;;;10.24;59.92
35649;BME280;21768;48.562;13.414;2023-05-01T03:16:40;97196.06;;;10.26;59.94
35649;BME280;21768;48.562;13.414;2023-05-01T03:19:06;97199.47;;;10.26;59.91
35649;BME280;21768;48.562;13.414;2023-05-01T03:21:31;97198.31;;;10.21;59.85
35649;BME280;21768;48.562;13.414;2023-05-01T03:23:58;97193.81;;;10.17;59.97
35649;BME280;21768;48.562;13.414;2023-05-01T03:26:24;97195.44;;;10.16;59.88
35649;BME280;21768;48.562;13.414;2023-05-01T03:28:49;97190.41;;;10.16;59.97
35649;BME280;21768;48.562;13.414;2023-05-01T03:31:15;97193.81;;;10.17;59.93
35649;BME280;21768;48.562;13.414;2023-05-01T03:33:40;97194.81;;;10.19;60.09
35649;BME280;21768;48.562;13.414;2023-05-01T03:36:06;97192.78;;;10.13;59.93
35649;BME280;21768;48.562;13.414;2023-05-01T03:38:31;97196.75;;;10.10;60.28
35649;BME280;21768;48.562;13.414;2023-05-01T03:40:57;97187.53;;;10.10;60.08
35649;BME280;21768;48.562;13.414;2023-05-01T03:43:23;97195.88;;;10.09;60.21
35649;BME280;21768;48.562;13.414;2023-05-01T03:45:50;97191.50;;;10.07;59.73
35649;BME280;21768;48.562;13.414;2023-05-01T03:48:16;97185.28;;;10.15;59.53
35649;BME280;21768;48.562;13.414;2023-05-01T03:50:41;97177.34;;;10.22;58.84
35649;BME280;21768;48.562;13.414;2023-05-01T03:53:07;97172.03;;;10.31;58.47
35649;BME280;21768;48.562;13.414;2023-05-01T03:55:32;97167.63;;;10.41;58.41
35649;BME280;21768;48.562;13.414;2023-05-01T03:57:58;97172.28;;;10.48;58.09
35649;BME280;21768;48.562;13.414;2023-05-01T04:00:23;97170.13;;;10.54;57.62
35649;BME280;21768;48.562;13.414;2023-05-01T04:02:48;97166.44;;;10.63;57.14
35649;BME280;21768;48.562;13.414;2023-05-01T04:05:14;97169.59;;;10.73;56.80
35649;BME280;21768;48.562;13.414;2023-05-01T04:07:40;97175.09;;;10.81;56.34
35649;BME280;21768;48.562;13.414;2023-05-01T04:10:05;97160.50;;;10.90;55.43
35649;BME280;21768;48.562;13.414;2023-05-01T04:12:33;97165.13;;;10.97;55.38
35649;BME280;21768;48.562;13.414;2023-05-01T04:14:58;97162.19;;;11.04;55.19
35649;BME280;21768;48.562;13.414;2023-05-01T04:17:24;97163.53;;;11.12;54.82
35649;BME280;21768;48.562;13.414;2023-05-01T04:19:49;97156.56;;;11.23;54.54
35649;BME280;21768;48.562;13.414;2023-05-01T04:22:15;97153.03;;;11.34;54.13
35649;BME280;21768;48.562;13.414;2023-05-01T04:24:40;97158.50;;;11.42;53.86
35649;BME280;21768;48.562;13.414;2023-05-01T04:27:06;97154.41;;;11.44;53.33
35649;BME280;21768;48.562;13.414;2023-05-01T04:29:31;97153.78;;;11.48;53.14
35649;BME280;21768;48.562;13.414;2023-05-01T04:31:57;97158.25;;;11.52;53.02
35649;BME280;21768;48.562;13.414;2023-05-01T04:34:22;97147.63;;;11.57;52.80
35649;BME280;21768;48.562;13.414;2023-05-01T04:36:47;97152.13;;;11.63;52.68
35649;BME280;21768;48.562;13.414;2023-05-01T04:39:13;97149.09;;;11.69;52.13
35649;BME280;21768;48.562;13.414;2023-05-01T04:41:39;97148.28;;;11.70;51.92
35649;BME280;21768;48.562;13.414;2023-05-01T04:44:04;97142.53;;;11.72;52.23
35649;BME280;21768;48.562;13.414;2023-05-01T04:46:30;97146.03;;;11.74;51.57
35649;BME280;21768;48.562;13.414;2023-05-01T04:48:55;97142.06;;;11.78;51.56
35649;BME280;21768;48.562;13.414;2023-05-01T04:51:20;97142.22;;;11.81;51.51
35649;BME280;21768;48.562;13.414;2023-05-01T04:53:46;97142.50;;;11.85;51.43
35649;BME280;21768;48.562;13.414;2023-05-01T04:56:12;97137.66;;;11.90;51.05
35649;BME280;21768;48.562;13.414;2023-05-01T04:58:37;97138.09;;;11.98;51.00
35649;BME280;21768;48.562;13.414;2023-05-01T05:01:03;97140.28;;;12.06;50.80
35649;BME280;21768;48.562;13.414;2023-05-01T05:03:28;97147.72;;;12.19;50.60
35649;BME280;21768;48.562;13.414;2023-05-01T05:05:54;97148.41;;;12.32;50.40
35649;BME280;21768;48.562;13.414;2023-05-01T05:08:19;97138.03;;;12.43;50.05
35649;BME280;21768;48.562;13.414;2023-05-01T05:10:45;97145.19;;;12.50;50.04
35649;BME280;21768;48.562;13.414;2023-05-01T05:13:10;97137.13;;;12.57;49.88
35649;BME280;21768;48.562;13.414;2023-05-01T05:15:35;97142.50;;;12.64;49.80
35649;BME280;21768;48.562;13.414;2023-05-01T05:18:01;97133.31;;;12.66;49.72
35649;BME280;21768;48.562;13.414;2023-05-01T05:20:26;97131.75;;;12.68;49.97
35649;BME280;21768;48.562;13.414;2023-05-01T05:22:52;97124.31;;;12.71;49.47
35649;BME280;21768;48.562;13.414;2023-05-01T05:25:17;97122.81;;;12.74;49.25
35649;BME280;21768;48.562;13.414;2023-05-01T05:27:43;97122.28;;;12.80;48.89
35649;BME280;21768;48.562;13.414;2023-05-01T05:30:09;97119.91;;;12.83;48.47
35649;BME280;21768;48.562;13.414;2023-05-01T05:32:34;97119.47;;;12.91;48.57
35649;BME280;21768;48.562;13.414;2023-05-01T05:35:00;97126.06;;;13.04;47.98
35649;BME280;21768;48.562;13.414;2023-05-01T05:37:25;97119.16;;;13.18;47.93
35649;BME280;21768;48.562;13.414;2023-05-01T05:39:51;97116.94;;;13.24;47.62
35649;BME280;21768;48.562;13.414;2023-05-01T05:42:16;97119.88;;;13.32;46.97
35649;BME280;21768;48.562;13.414;2023-05-01T05:44:42;97109.38;;;13.42;46.61
35649;BME280;21768;48.562;13.414;2023-05-01T05:47:07;97107.38;;;13.52;46.33
35649;BME280;21768;48.562;13.414;2023-05-01T05:49:32;97115.47;;;13.63;46.27
35649;BME280;21768;48.562;13.414;2023-05-01T05:51:58;97110.88;;;13.72;45.06
35649;BME280;21768;48.562;13.414;2023-05-01T05:54:23;97115.38;;;13.78;44.83
35649;BME280;21768;48.562;13.414;2023-05-01T05:56:49;97116.53;;;13.84;44.85
35649;BME280;21768;48.562;13.414;2023-05-01T05:59:14;97110.94;;;13.91;44.62
35649;BME280;21768;48.562;13.414;2023-05-01T06:01:40;97112.97;;;13.99;44.48
35649;BME280;21768;48.562;13.414;2023-05-01T06:04:07;97107.53;;;14.09;44.17
35649;BME280;21768;48.562;13.414;2023-05-01T06:06:32;97109.53;;;14.16;44.45
35649;BME280;21768;48.562;13.414;2023-05-01T06:08:58;97112.44;;;14.23;44.61
35649;BME280;21768;48.562;13.414;2023-05-01T06:11:24;97101.69;;;14.29;43.92
35649;BME280;21768;48.562;13.414;2023-05-01T06:13:50;97104.09;;;14.44;43.73
35649;BME280;21768;48.562;13.414;2023-05-01T06:16:16;97105.75;;;14.62;43.91
35649;BME280;21768;48.562;13.414;2023-05-01T06:18:41;97102.84;;;14.73;42.71
35649;BME280;21768;48.562;13.414;2023-05-01T06:21:07;97102.47;;;14.83;42.64
35649;BME280;21768;48.562;13.414;2023-05-01T06:23:32;97115.59;;;14.93;42.60
35649;BME280;21768;48.562;13.414;2023-05-01T06:25:58;97103.31;;;15.03;42.41
35649;BME280;21768;48.562;13.414;2023-05-01T06:28:24;97102.94;;;15.14;42.30
35649;BME280;21768;48.562;13.414;2023-05-01T06:30:49;97100.94;;;15.26;42.50
35649;BME280;21768;48.562;13.414;2023-05-01T06:33:15;97102.41;;;15.42;42.38
35649;BME280;21768;48.562;13.414;2023-05-01T06:35:40;97100.19;;;15.50;41.15
35649;BME280;21768;48.562;13.414;2023-05-01T06:38:06;97102.75;;;15.50;41.84
35649;BME280;21768;48.562;13.414;2023-05-01T06:40:31;97100.56;;;15.57;41.85
35649;BME280;21768;48.562;13.414;2023-05-01T06:43:00;97104.25;;;15.65;42.46
35649;BME280;21768;48.562;13.414;2023-05-01T06:45:25;97104.56;;;15.73;41.65
35649;BME280;21768;48.562;13.414;2023-05-01T06:47:52;97102.78;;;15.71;41.73
35649;BME280;21768;48.562;13.414;2023-05-01T06:50:18;97095.38;;;15.77;41.33
35649;BME280;21768;48.562;13.414;2023-05-01T06:52:43;97097.47;;;15.87;41.13
35649;BME280;21768;48.562;13.414;2023-05-01T06:55:08;97091.44;;;16.06;40.74
35649;BME280;21768;48.562;13.414;2023-05-01T06:57:34;97086.44;;;16.09;40.38
35649;BME280;21768;48.562;13.414;2023-05-01T07:00:00;97094.00;;;16.28;40.83
35649;BME280;21768;48.562;13.414;2023-05-01T07:02:25;97087.59;;;16.39;39.90
35649;BME280;21768;48.562;13.414;2023-05-01T07:04:51;97095.31;;;16.41;39.48
35649;BME280;21768;48.562;13.414;2023-05-01T07:07:17;97089.22;;;16.37;39.35
35649;BME280;21768;48.562;13.414;2023-05-01T07:09:42;97081.81;;;16.43;39.02
35649;BME280;21768;48.562;13.414;2023-05-01T07:12:08;97086.28;;;16.49;39.51
35649;BME280;21768;48.562;13.414;2023-05-01T07:14:34;97082.69;;;16.66;39.73
35649;BME280;21768;48.562;13.414;2023-05-01T07:17:00;97079.03;;;16.82;39.00
35649;BME280;21768;48.562;13.414;2023-05-01T07:19:25;97076.66;;;16.88;39.06
35649;BME280;21768;48.562;13.414;2023-05-01T07:21:51;97072.66;;;16.94;38.68
35649;BME280;21768;48.562;13.414;2023-05-01T07:24:17;97076.88;;;16.94;38.79
35649;BME280;21768;48.562;13.414;2023-05-01T07:26:42;97074.16;;;16.89;38.86
35649;BME280;21768;48.562;13.414;2023-05-01T07:29:08;97073.31;;;16.89;39.09
35649;BME280;21768;48.562;13.414;2023-05-01T07:31:33;97075.16;;;16.93;39.60
35649;BME280;21768;48.562;13.414;2023-05-01T07:33:59;97079.00;;;17.06;38.94
35649;BME280;21768;48.562;13.414;2023-05-01T07:36:24;97076.09;;;17.20;38.47
35649;BME280;21768;48.562;13.414;2023-05-01T07:38:50;97076.72;;;17.39;38.74
35649;BME280;21768;48.562;13.414;2023-05-01T07:41:15;97073.66;;;17.49;37.29
35649;BME280;21768;48.562;13.414;2023-05-01T07:43:41;97079.00;;;17.56;36.84
35649;BME280;21768;48.562;13.414;2023-05-01T07:46:06;97073.22;;;17.62;36.91
35649;BME280;21768;48.562;13.414;2023-05-01T07:48:32;97072.19;;;17.82;37.12
35649;BME280;21768;48.562;13.414;2023-05-01T07:51:01;97075.44;;;18.04;36.47
35649;BME280;21768;48.562;13.414;2023-05-01T07:53:26;97069.13;;;18.21;36.34
35649;BME280;21768;48.562;13.414;2023-05-01T07:55:52;97068.28;;;18.20;35.29
35649;BME280;21768;48.562;13.414;2023-05-01T07:58:17;97076.47;;;18.10;35.03
35649;BME280;21768;48.562;13.414;2023-05-01T08:00:43;97064.47;;;18.08;35.68
35649;BME280;21768;48.562;13.414;2023-05-01T08:03:11;97065.56;;;18.16;35.26
35649;BME280;21768;48.562;13.414;2023-05-01T08:05:41;97066.63;;;18.22;35.74
35649;BME280;21768;48.562;13.414;2023-05-01T08:08:06;97068.84;;;18.40;35.23
35649;BME280;21768;48.562;13.414;2023-05-01T08:10:32;97071.78;;;18.52;34.71
35649;BME280;21768;48.562;13.414;2023-05-01T08:12:57;97069.56;;;18.64;34.82
35649;BME280;21768;48.562;13.414;2023-05-01T08:15:23;97063.91;;;18.75;34.67
35649;BME280;21768;48.562;13.414;2023-05-01T08:17:48;97062.16;;;19.03;34.97
35649;BME280;21768;48.562;13.414;2023-05-01T08:20:15;97067.03;;;19.27;34.91
35649;BME280;21768;48.562;13.414;2023-05-01T08:22:41;97069.13;;;19.44;34.30
35649;BME280;21768;48.562;13.414;2023-05-01T08:25:06;97054.25;;;19.62;33.84
35649;BME280;21768;48.562;13.414;2023-05-01T08:27:32;97054.91;;;19.89;34.17
35649;BME280;21768;48.562;13.414;2023-05-01T08:29:58;97046.63;;;20.38;33.06
35649;BME280;21768;48.562;13.414;2023-05-01T08:32:23;97048.28;;;20.77;32.35
35649;BME280;21768;48.562;13.414;2023-05-01T08:34:51;97046.56;;;21.21;32.25
35649;BME280;21768;48.562;13.414;2023-05-01T08:37:17;97037.63;;;21.49;30.76
35649;BME280;21768;48.562;13.414;2023-05-01T08:39:43;97044.81;;;21.70;30.70
35649;BME280;21768;48.562;13.414;2023-05-01T08:42:08;97033.88;;;21.85;30.79
35649;BME280;21768;48.562;13.414;2023-05-01T08:44:37;97041.59;;;21.85;30.84
35649;BME280;21768;48.562;13.414;2023-05-01T08:47:15;97039.31;;;22.03;29.84
35649;BME280;21768;48.562;13.414;2023-05-01T08:49:41;97041.91;;;22.68;29.44
35649;BME280;21768;48.562;13.414;2023-05-01T08:52:10;97029.59;;;23.18;30.10
35649;BME280;21768;48.562;13.414;2023-05-01T08:54:38;97046.72;;;23.13;29.27
35649;BME280;21768;48.562;13.414;2023-05-01T08:57:08;97033.44;;;22.77;29.02
35649;BME280;21768;48.562;13.414;2023-05-01T08:59:34;97026.94;;;22.38;29.61
35649;BME280;21768;48.562;13.414;2023-05-01T09:02:01;97029.25;;;22.17;29.73
35649;BME280;21768;48.562;13.414;2023-05-01T09:04:33;97033.50;;;22.15;30.76
35649;BME280;21768;48.562;13.414;2023-05-01T09:07:00;97029.44;;;22.32;30.92
35649;BME280;21768;48.562;13.414;2023-05-01T09:09:27;97031.16;;;22.31;29.50
35649;BME280;21768;48.562;13.414;2023-05-01T09:12:21;97043.41;;;22.51;30.00
35649;BME280;21768;48.562;13.414;2023-05-01T09:14:44;97032.84;;;22.99;28.72
35649;BME280;21768;48.562;13.414;2023-05-01T09:17:10;97036.53;;;23.25;28.30
35649;BME280;21768;48.562;13.414;2023-05-01T09:19:36;97027.16;;;23.35;28.01
35649;BME280;21768;48.562;13.414;2023-05-01T09:22:01;97025.34;;;24.34;26.38
35649;BME280;21768;48.562;13.414;2023-05-01T09:24:27;97020.44;;;25.01;25.99
35649;BME280;21768;48.562;13.414;2023-05-01T09:26:52;97008.41;;;26.11;25.48
35649;BME280;21768;48.562;13.414;2023-05-01T09:34:42;97011.91;;;31.84;18.95
35649;BME280;21768;48.562;13.414;2023-05-01T09:37:13;97012.53;;;31.21;19.69
35649;BME280;21768;48.562;13.414;2023-05-01T09:39:48;97020.72;;;30.64;20.25
35649;BME280;21768;48.562;13.414;2023-05-01T09:42:24;97017.13;;;29.76;20.76
35649;BME280;21768;48.562;13.414;2023-05-01T09:44:50;97014.09;;;28.13;22.20
35649;BME280;21768;48.562;13.414;2023-05-01T09:47:20;97020.16;;;27.00;23.30
35649;BME280;21768;48.562;13.414;2023-05-01T09:49:51;97020.25;;;26.79;23.16
35649;BME280;21768;48.562;13.414;2023-05-01T09:52:18;97008.56;;;27.53;23.14
35649;BME280;21768;48.562;13.414;2023-05-01T09:54:43;97010.38;;;29.07;20.83
35649;BME280;21768;48.562;13.414;2023-05-01T09:57:09;97014.25;;;29.40;20.61
35649;BME280;21768;48.562;13.414;2023-05-01T09:59:34;97004.69;;;29.93;20.80
35649;BME280;21768;48.562;13.414;2023-05-01T10:02:00;97009.28;;;29.22;20.38
35649;BME280;21768;48.562;13.414;2023-05-01T10:04:32;97008.38;;;28.60;21.18
35649;BME280;21768;48.562;13.414;2023-05-01T10:07:10;96997.66;;;28.89;21.78
35649;BME280;21768;48.562;13.414;2023-05-01T10:09:36;97001.19;;;28.84;21.73
35649;BME280;21768;48.562;13.414;2023-05-01T10:12:01;97003.94;;;29.31;20.86
35649;BME280;21768;48.562;13.414;2023-05-01T10:14:27;97004.06;;;29.22;21.36
35649;BME280;21768;48.562;13.414;2023-05-01T10:16:54;97002.28;;;29.27;21.66
35649;BME280;21768;48.562;13.414;2023-05-01T10:19:22;97000.00;;;29.63;20.85
35649;BME280;21768;48.562;13.414;2023-05-01T10:21:47;96995.03;;;29.48;21.81
35649;BME280;21768;48.562;13.414;2023-05-01T10:24:15;96999.88;;;29.15;20.86
35649;BME280;21768;48.562;13.414;2023-05-01T10:26:41;96998.31;;;28.33;21.81
35649;BME280;21768;48.562;13.414;2023-05-01T10:29:08;97002.13;;;27.98;22.27
35649;BME280;21768;48.562;13.414;2023-05-01T10:31:33;96990.00;;;27.99;23.80
35649;BME280;21768;48.562;13.414;2023-05-01T10:34:00;96984.06;;;29.81;21.64
35649;BME280;21768;48.562;13.414;2023-05-01T10:39:00;96984.59;;;31.97;18.70
35649;BME280;21768;48.562;13.414;2023-05-01T10:42:08;96981.13;;;32.29;18.44
35649;BME280;21768;48.562;13.414;2023-05-01T10:44:40;96983.53;;;32.37;17.57
35649;BME280;21768;48.562;13.414;2023-05-01T10:50:06;96981.03;;;33.21;16.96
35649;BME280;21768;48.562;13.414;2023-05-01T10:55:34;96981.66;;;31.03;17.91
35649;BME280;21768;48.562;13.414;2023-05-01T10:58:00;96980.50;;;29.88;19.06
35649;BME280;21768;48.562;13.414;2023-05-01T11:00:26;96984.44;;;29.03;19.91
35649;BME280;21768;48.562;13.414;2023-05-01T11:08:35;96970.44;;;29.13;19.75
35649;BME280;21768;48.562;13.414;2023-05-01T11:14:05;96968.06;;;28.30;21.04
35649;BME280;21768;48.562;13.414;2023-05-01T11:21:33;96964.72;;;27.27;22.01
35649;BME280;21768;48.562;13.414;2023-05-01T11:24:00;96967.56;;;26.86;21.80
35649;BME280;21768;48.562;13.414;2023-05-01T11:26:27;96963.38;;;26.67;23.12
35649;BME280;21768;48.562;13.414;2023-05-01T11:28:53;96972.97;;;26.42;22.39
35649;BME280;21768;48.562;13.414;2023-05-01T11:31:20;96966.16;;;26.09;23.25
35649;BME280;21768;48.562;13.414;2023-05-01T11:33:45;96966.22;;;25.86;22.80
35649;BME280;21768;48.562;13.414;2023-05-01T11:36:11;96955.03;;;25.57;23.55
35649;BME280;21768;48.562;13.414;2023-05-01T11:38:48;96962.78;;;25.60;23.73
35649;BME280;21768;48.562;13.414;2023-05-01T11:41:18;96953.34;;;25.43;22.92
35649;BME280;21768;48.562;13.414;2023-05-01T11:46:29;96953.94;;;24.27;25.65
35649;BME280;21768;48.562;13.414;2023-05-01T11:48:56;96947.97;;;24.25;26.20
35649;BME280;21768;48.562;13.414;2023-05-01T11:51:22;96948.03;;;24.46;26.44
35649;BME280;21768;48.562;13.414;2023-05-01T11:54:08;96948.06;;;24.64;25.72
35649;BME280;21768;48.562;13.414;2023-05-01T11:56:35;96960.03;;;24.41;25.84
35649;BME280;21768;48.562;13.414;2023-05-01T11:59:12;96955.75;;;24.41;26.64
35649;BME280;21768;48.562;13.414;2023-05-01T12:01:40;96951.47;;;24.57;26.42
35649;BME280;21768;48.562;13.414;2023-05-01T12:04:08;96952.41;;;24.73;25.87
35649;BME280;21768;48.562;13.414;2023-05-01T12:06:40;96944.66;;;24.73;25.19
35649;BME280;21768;48.562;13.414;2023-05-01T12:09:09;96951.53;;;24.82;25.48
35649;BME280;21768;48.562;13.414;2023-05-01T12:11:34;96947.22;;;24.82;25.78
35649;BME280;21768;48.562;13.414;2023-05-01T12:14:00;96952.38;;;24.65;26.47
35649;BME280;21768;48.562;13.414;2023-05-01T12:16:26;96943.78;;;24.75;26.80
35649;BME280;21768;48.562;13.414;2023-05-01T12:18:52;96937.78;;;24.73;26.07
35649;BME280;21768;48.562;13.414;2023-05-01T12:21:18;96933.44;;;24.63;26.48
35649;BME280;21768;48.562;13.414;2023-05-01T12:23:44;96939.47;;;24.65;27.29
35649;BME280;21768;48.562;13.414;2023-05-01T12:26:22;96930.03;;;24.70;27.36
35649;BME280;21768;48.562;13.414;2023-05-01T12:29:07;96933.44;;;24.77;27.06
35649;BME280;21768;48.562;13.414;2023-05-01T12:31:34;96932.59;;;24.76;27.07
35649;BME280;21768;48.562;13.414;2023-05-01T12:34:05;96929.16;;;24.77;28.01
35649;BME280;21768;48.562;13.414;2023-05-01T12:36:35;96929.94;;;24.51;27.17
35649;BME280;21768;48.562;13.414;2023-05-01T12:41:45;96923.88;;;24.29;28.14
35649;BME280;21768;48.562;13.414;2023-05-01T12:44:26;96937.66;;;24.35;28.40
35649;BME280;21768;48.562;13.414;2023-05-01T12:47:03;96919.56;;;24.28;29.03
35649;BME280;21768;48.562;13.414;2023-05-01T12:49:29;96921.19;;;24.06;29.86
35649;BME280;21768;48.562;13.414;2023-05-01T12:51:57;96940.19;;;24.23;30.38
35649;BME280;21768;48.562;13.414;2023-05-01T12:54:31;96929.03;;;24.30;29.57
35649;BME280;21768;48.562;13.414;2023-05-01T12:57:08;96924.66;;;24.16;30.06
35649;BME280;21768;48.562;13.414;2023-05-01T12:59:35;96926.25;;;23.89;30.30
35649;BME280;21768;48.562;13.414;2023-05-01T13:02:02;96925.22;;;23.60;30.91
35649;BME280;21768;48.562;13.414;2023-05-01T13:04:28;96929.38;;;23.41;31.34
35649;BME280;21768;48.562;13.414;2023-05-01T13:06:54;96925.91;;;23.37;31.52
35649;BME280;21768;48.562;13.414;2023-05-01T13:09:24;96925.00;;;23.32;32.72
35649;BME280;21768;48.562;13.414;2023-05-01T13:11:58;96919.94;;;23.43;31.47
35649;BME280;21768;48.562;13.414;2023-05-01T13:14:25;96918.28;;;23.50;31.29
35649;BME280;21768;48.562;13.414;2023-05-01T13:16:51;96916.63;;;23.56;32.07
35649;BME280;21768;48.562;13.414;2023-05-01T13:19:27;96908.13;;;23.69;32.04
35649;BME280;21768;48.562;13.414;2023-05-01T13:21:53;96908.13;;;23.69;31.99
35649;BME280;21768;48.562;13.414;2023-05-01T13:24:19;96917.59;;;23.77;32.50
35649;BME280;21768;48.562;13.414;2023-05-01T13:26:46;96913.41;;;23.92;31.74
35649;BME280;21768;48.562;13.414;2023-05-01T13:29:15;96914.19;;;23.84;31.43
35649;BME280;21768;48.562;13.414;2023-05-01T13:31:44;96915.09;;;23.89;31.61
35649;BME280;21768;48.562;13.414;2023-05-01T13:34:10;96915.94;;;23.85;32.10
35649;BME280;21768;48.562;13.414;2023-05-01T13:36:39;96911.69;;;23.93;32.13